Kezdőlap
METAR-TAF:

METAR-TAF

Repülőterek :

Zonguldak, Törökország

földrajzi szélesség: 41-27N, földrajzi hosszúság: 031-48E, magasság: 136 m

Jelenlegi meteorológiai megfigyelések

A jelentés 11 órával és 6 perccel ezelõtt készült, 13:50 UTC
Északi szél 7 kt
Hőmérséklet 17°C
Páratartalom 48%
Légköri nyomás 1026 hPa
Látótávolság 10 km, vagy több
Kevés felhő 3500 lábon
Szakadozott felhőzet 10000 lábon

METAR: LTAS 241350Z 35007KT 9999 FEW035 BKN100 17/06 Q1026

Idő: 03:56 (00:56 UTC)

Előrejelzés

A jelentés 11 órával és 16 perccel ezelõtt készült, 13:40 UTC
Az előrejelzés 24-én 15 óra UTC és 24-én 24 óra UTC között érvényes
Különbözõ irányokból fújó szél 2 kt
Látótávolság 10 km, vagy több
Szórványos felhőzet 4000 lábon

TAF: LTAS 241340Z 2415/2424 VRB02KT 9999 SCT040

Meteorológiai megfigyelések és előrejelzések több, mint 4000 repülőtéren (METAR és TAF jelentéseket).

A térképen piros és sárga pontok jelzik az elérhető meteorológiai állomásokat.

Mozgassa az egeret a pont fölött, hogy megjelenjen az állomás neve.

Azután kattintson az időjárási megfigyelések és előrejelzések megtekintéséhez.

A térkép megváltoztatása: kattintson a fekete keresztel jelölt zöld gombra ráközelítéshez, a vonallal jelölt zöld gombra távolításhoz, vagy a zöld nyilakra a szomszédos térképek eléréséhez.


METAR-TAF: